Flint Hill, North Carolina
Current Conditions -  °F | °C
As of 2:55 AM on Tuesday 21 Oct 2014 (Local Time) from KVUJ Reporting Station
Overcast Overcast  
Wind Chill: 53°   Ceiling: 10000
Heat Index: 53°   Visibility: 10mi
Dew Point: 52°   Wind: 0mph
Humidity: 97%   Direction: NA
Pressure: 29.99"   Gusts: NA
Location:  35.4086°N, 79.9566°W
Report Text: KVUJ 210655Z AUTO 00000KT 10SM BKN100 OVC120 12/11 A2999 RMK AO2 T01160112
Loading
Personal Weather Stations






























Interactive Weather Map
Tropical Storm Tracking
New forecast layout! Learn more

10-Day Weather Forecast

Advertisements
Track Severe Weather on mobile